sensor_id;sensor_type;location;lat;lon;timestamp;P1;durP1;ratioP1;P2;durP2;ratioP2
23222;SDS011;11780;13.904;100.620;2022-09-29T00:01:46;4.95;;;2.90;;
23222;SDS011;11780;13.904;100.620;2022-09-29T00:04:16;4.57;;;3.00;;
23222;SDS011;11780;13.904;100.620;2022-09-29T00:06:46;5.28;;;2.78;;
23222;SDS011;11780;13.904;100.620;2022-09-29T00:09:17;3.95;;;2.70;;
23222;SDS011;11780;13.904;100.620;2022-09-29T00:11:47;4.47;;;3.42;;
23222;SDS011;11780;13.904;100.620;2022-09-29T00:14:17;3.78;;;3.25;;
23222;SDS011;11780;13.904;100.620;2022-09-29T00:16:47;4.00;;;3.05;;
23222;SDS011;11780;13.904;100.620;2022-09-29T00:19:17;5.22;;;3.33;;
23222;SDS011;11780;13.904;100.620;2022-09-29T00:21:48;6.50;;;3.87;;
23222;SDS011;11780;13.904;100.620;2022-09-29T00:24:18;4.32;;;3.80;;
23222;SDS011;11780;13.904;100.620;2022-09-29T00:26:49;5.07;;;3.80;;
23222;SDS011;11780;13.904;100.620;2022-09-29T00:29:20;4.78;;;3.63;;
23222;SDS011;11780;13.904;100.620;2022-09-29T00:31:51;4.70;;;3.85;;
23222;SDS011;11780;13.904;100.620;2022-09-29T00:34:22;4.93;;;4.20;;
23222;SDS011;11780;13.904;100.620;2022-09-29T00:36:52;5.15;;;3.90;;
23222;SDS011;11780;13.904;100.620;2022-09-29T00:39:22;6.17;;;4.30;;
23222;SDS011;11780;13.904;100.620;2022-09-29T00:41:54;7.65;;;4.05;;
23222;SDS011;11780;13.904;100.620;2022-09-29T00:47:27;6.10;;;4.72;;
23222;SDS011;11780;13.904;100.620;2022-09-29T00:50:04;6.72;;;4.68;;
23222;SDS011;11780;13.904;100.620;2022-09-29T00:52:45;7.10;;;4.05;;
23222;SDS011;11780;13.904;100.620;2022-09-29T00:55:26;6.80;;;4.50;;
23222;SDS011;11780;13.904;100.620;2022-09-29T00:58:07;8.20;;;5.17;;
23222;SDS011;11780;13.904;100.620;2022-09-29T01:00:56;7.28;;;5.00;;
23222;SDS011;11780;13.904;100.620;2022-09-29T01:03:31;7.57;;;4.45;;
23222;SDS011;11780;13.904;100.620;2022-09-29T01:06:07;4.78;;;4.00;;
23222;SDS011;11780;13.904;100.620;2022-09-29T01:08:58;6.45;;;4.55;;
23222;SDS011;11780;13.904;100.620;2022-09-29T01:11:31;6.07;;;4.65;;
23222;SDS011;11780;13.904;100.620;2022-09-29T01:14:04;6.15;;;5.28;;
23222;SDS011;11780;13.904;100.620;2022-09-29T01:16:38;6.75;;;4.82;;
23222;SDS011;11780;13.904;100.620;2022-09-29T01:33:22;9.13;;;5.95;;
23222;SDS011;11780;13.904;100.620;2022-09-29T01:36:23;7.57;;;5.30;;
23222;SDS011;11780;13.904;100.620;2022-09-29T01:47:26;7.65;;;5.38;;
23222;SDS011;11780;13.904;100.620;2022-09-29T01:50:11;9.32;;;5.45;;
23222;SDS011;11780;13.904;100.620;2022-09-29T01:52:50;9.55;;;5.30;;
23222;SDS011;11780;13.904;100.620;2022-09-29T01:55:26;7.57;;;5.45;;
23222;SDS011;11780;13.904;100.620;2022-09-29T01:58:06;5.50;;;4.82;;
23222;SDS011;11780;13.904;100.620;2022-09-29T02:00:46;7.05;;;4.78;;
23222;SDS011;11780;13.904;100.620;2022-09-29T02:03:27;10.18;;;5.60;;
23222;SDS011;11780;13.904;100.620;2022-09-29T02:06:20;7.60;;;5.07;;
23222;SDS011;11780;13.904;100.620;2022-09-29T02:08:57;7.57;;;5.40;;
23222;SDS011;11780;13.904;100.620;2022-09-29T02:11:34;6.65;;;5.05;;
23222;SDS011;11780;13.904;100.620;2022-09-29T02:16:40;6.50;;;5.03;;
23222;SDS011;11780;13.904;100.620;2022-09-29T02:19:33;8.02;;;4.88;;
23222;SDS011;11780;13.904;100.620;2022-09-29T02:22:08;8.25;;;5.07;;
23222;SDS011;11780;13.904;100.620;2022-09-29T02:24:39;6.55;;;4.90;;
23222;SDS011;11780;13.904;100.620;2022-09-29T02:29:41;5.93;;;4.53;;
23222;SDS011;11780;13.904;100.620;2022-09-29T02:32:13;7.00;;;4.82;;
23222;SDS011;11780;13.904;100.620;2022-09-29T02:34:43;6.90;;;4.60;;
23222;SDS011;11780;13.904;100.620;2022-09-29T02:40:02;8.10;;;4.80;;
23222;SDS011;11780;13.904;100.620;2022-09-29T02:49:01;9.88;;;4.43;;
23222;SDS011;11780;13.904;100.620;2022-09-29T02:51:38;8.05;;;4.28;;
23222;SDS011;11780;13.904;100.620;2022-09-29T02:54:18;7.03;;;5.10;;
23222;SDS011;11780;13.904;100.620;2022-09-29T03:02:39;6.30;;;4.85;;
23222;SDS011;11780;13.904;100.620;2022-09-29T03:05:16;6.93;;;4.60;;
23222;SDS011;11780;13.904;100.620;2022-09-29T03:07:48;7.35;;;4.95;;
23222;SDS011;11780;13.904;100.620;2022-09-29T03:10:19;8.10;;;5.07;;
23222;SDS011;11780;13.904;100.620;2022-09-29T03:12:56;6.60;;;4.32;;
23222;SDS011;11780;13.904;100.620;2022-09-29T03:15:26;5.75;;;4.32;;
23222;SDS011;11780;13.904;100.620;2022-09-29T03:17:57;7.20;;;5.15;;
23222;SDS011;11780;13.904;100.620;2022-09-29T03:20:27;5.33;;;4.40;;
23222;SDS011;11780;13.904;100.620;2022-09-29T03:22:57;6.22;;;4.55;;
23222;SDS011;11780;13.904;100.620;2022-09-29T03:25:28;7.10;;;4.50;;
23222;SDS011;11780;13.904;100.620;2022-09-29T03:30:30;6.72;;;4.50;;
23222;SDS011;11780;13.904;100.620;2022-09-29T03:33:01;6.25;;;4.70;;
23222;SDS011;11780;13.904;100.620;2022-09-29T03:35:32;7.05;;;4.35;;
23222;SDS011;11780;13.904;100.620;2022-09-29T03:38:05;7.15;;;4.47;;
23222;SDS011;11780;13.904;100.620;2022-09-29T03:40:36;8.53;;;4.70;;
23222;SDS011;11780;13.904;100.620;2022-09-29T03:43:06;5.80;;;4.50;;
23222;SDS011;11780;13.904;100.620;2022-09-29T03:45:37;6.33;;;5.27;;
23222;SDS011;11780;13.904;100.620;2022-09-29T03:48:16;5.65;;;5.13;;
23222;SDS011;11780;13.904;100.620;2022-09-29T03:50:50;6.90;;;4.78;;
23222;SDS011;11780;13.904;100.620;2022-09-29T03:53:22;4.85;;;4.35;;
23222;SDS011;11780;13.904;100.620;2022-09-29T03:55:53;7.35;;;4.60;;
23222;SDS011;11780;13.904;100.620;2022-09-29T03:58:24;8.27;;;5.07;;
23222;SDS011;11780;13.904;100.620;2022-09-29T04:00:55;6.10;;;5.03;;
23222;SDS011;11780;13.904;100.620;2022-09-29T04:03:26;5.20;;;4.65;;
23222;SDS011;11780;13.904;100.620;2022-09-29T04:05:58;6.43;;;5.00;;
23222;SDS011;11780;13.904;100.620;2022-09-29T04:08:28;6.83;;;5.23;;
23222;SDS011;11780;13.904;100.620;2022-09-29T04:10:59;6.63;;;5.40;;
23222;SDS011;11780;13.904;100.620;2022-09-29T04:13:29;6.82;;;5.15;;
23222;SDS011;11780;13.904;100.620;2022-09-29T04:16:03;6.43;;;5.55;;
23222;SDS011;11780;13.904;100.620;2022-09-29T04:18:35;6.25;;;4.63;;
23222;SDS011;11780;13.904;100.620;2022-09-29T04:21:06;6.65;;;4.85;;
23222;SDS011;11780;13.904;100.620;2022-09-29T04:23:37;6.57;;;4.95;;
23222;SDS011;11780;13.904;100.620;2022-09-29T04:26:09;8.80;;;5.18;;
23222;SDS011;11780;13.904;100.620;2022-09-29T04:28:39;7.33;;;4.47;;
23222;SDS011;11780;13.904;100.620;2022-09-29T04:33:41;7.90;;;5.35;;
23222;SDS011;11780;13.904;100.620;2022-09-29T04:36:11;7.13;;;5.43;;
23222;SDS011;11780;13.904;100.620;2022-09-29T04:38:42;7.35;;;6.20;;
23222;SDS011;11780;13.904;100.620;2022-09-29T04:41:12;8.93;;;6.13;;
23222;SDS011;11780;13.904;100.620;2022-09-29T04:43:42;10.35;;;6.00;;
23222;SDS011;11780;13.904;100.620;2022-09-29T04:46:13;6.15;;;5.53;;
23222;SDS011;11780;13.904;100.620;2022-09-29T04:48:44;7.03;;;5.50;;
23222;SDS011;11780;13.904;100.620;2022-09-29T04:51:15;8.80;;;5.77;;
23222;SDS011;11780;13.904;100.620;2022-09-29T04:53:46;7.55;;;5.70;;
23222;SDS011;11780;13.904;100.620;2022-09-29T04:56:16;7.50;;;5.55;;
23222;SDS011;11780;13.904;100.620;2022-09-29T04:58:46;6.80;;;5.30;;
23222;SDS011;11780;13.904;100.620;2022-09-29T05:01:16;6.47;;;5.32;;
23222;SDS011;11780;13.904;100.620;2022-09-29T05:03:47;8.82;;;5.50;;
23222;SDS011;11780;13.904;100.620;2022-09-29T05:06:18;7.07;;;5.72;;
23222;SDS011;11780;13.904;100.620;2022-09-29T05:08:48;6.05;;;4.80;;
23222;SDS011;11780;13.904;100.620;2022-09-29T05:11:19;8.13;;;6.03;;
23222;SDS011;11780;13.904;100.620;2022-09-29T05:13:50;7.73;;;5.93;;
23222;SDS011;11780;13.904;100.620;2022-09-29T05:16:21;8.52;;;6.05;;
23222;SDS011;11780;13.904;100.620;2022-09-29T05:18:51;8.03;;;6.23;;
23222;SDS011;11780;13.904;100.620;2022-09-29T05:21:22;6.82;;;5.70;;
23222;SDS011;11780;13.904;100.620;2022-09-29T05:23:55;8.07;;;6.05;;
23222;SDS011;11780;13.904;100.620;2022-09-29T05:26:26;6.88;;;6.20;;
23222;SDS011;11780;13.904;100.620;2022-09-29T05:28:56;7.40;;;5.60;;
23222;SDS011;11780;13.904;100.620;2022-09-29T05:31:26;6.90;;;6.22;;
23222;SDS011;11780;13.904;100.620;2022-09-29T05:33:57;8.35;;;6.05;;
23222;SDS011;11780;13.904;100.620;2022-09-29T05:36:28;6.28;;;5.45;;
23222;SDS011;11780;13.904;100.620;2022-09-29T05:38:59;6.88;;;6.22;;
23222;SDS011;11780;13.904;100.620;2022-09-29T05:41:30;11.55;;;6.32;;
23222;SDS011;11780;13.904;100.620;2022-09-29T05:44:00;6.77;;;5.97;;
23222;SDS011;11780;13.904;100.620;2022-09-29T05:46:31;7.80;;;5.57;;
23222;SDS011;11780;13.904;100.620;2022-09-29T05:49:02;6.97;;;5.43;;
23222;SDS011;11780;13.904;100.620;2022-09-29T05:51:32;8.18;;;5.75;;
23222;SDS011;11780;13.904;100.620;2022-09-29T05:54:03;8.10;;;5.60;;
23222;SDS011;11780;13.904;100.620;2022-09-29T05:56:33;6.03;;;5.40;;
23222;SDS011;11780;13.904;100.620;2022-09-29T05:59:09;7.40;;;5.30;;
23222;SDS011;11780;13.904;100.620;2022-09-29T06:01:39;7.57;;;5.60;;
23222;SDS011;11780;13.904;100.620;2022-09-29T06:04:10;7.43;;;5.53;;
23222;SDS011;11780;13.904;100.620;2022-09-29T06:06:41;6.38;;;5.45;;
23222;SDS011;11780;13.904;100.620;2022-09-29T06:09:12;8.02;;;5.13;;
23222;SDS011;11780;13.904;100.620;2022-09-29T06:11:42;7.33;;;5.60;;
23222;SDS011;11780;13.904;100.620;2022-09-29T06:14:12;7.60;;;6.43;;
23222;SDS011;11780;13.904;100.620;2022-09-29T06:16:42;7.30;;;5.95;;
23222;SDS011;11780;13.904;100.620;2022-09-29T06:19:13;6.90;;;5.72;;
23222;SDS011;11780;13.904;100.620;2022-09-29T06:21:43;6.68;;;5.22;;
23222;SDS011;11780;13.904;100.620;2022-09-29T06:24:13;6.72;;;5.15;;
23222;SDS011;11780;13.904;100.620;2022-09-29T06:26:43;6.10;;;5.50;;
23222;SDS011;11780;13.904;100.620;2022-09-29T06:29:14;6.93;;;5.35;;
23222;SDS011;11780;13.904;100.620;2022-09-29T06:31:45;9.77;;;6.13;;
23222;SDS011;11780;13.904;100.620;2022-09-29T06:34:19;7.28;;;5.55;;
23222;SDS011;11780;13.904;100.620;2022-09-29T06:36:49;9.73;;;5.60;;
23222;SDS011;11780;13.904;100.620;2022-09-29T06:39:37;8.05;;;5.63;;
23222;SDS011;11780;13.904;100.620;2022-09-29T06:42:08;6.18;;;5.57;;
23222;SDS011;11780;13.904;100.620;2022-09-29T06:44:39;6.90;;;5.15;;
23222;SDS011;11780;13.904;100.620;2022-09-29T06:47:10;5.72;;;4.95;;
23222;SDS011;11780;13.904;100.620;2022-09-29T06:49:40;5.63;;;5.00;;
23222;SDS011;11780;13.904;100.620;2022-09-29T06:52:23;6.07;;;5.28;;
23222;SDS011;11780;13.904;100.620;2022-09-29T06:54:56;5.93;;;4.68;;
23222;SDS011;11780;13.904;100.620;2022-09-29T06:57:26;8.20;;;4.60;;
23222;SDS011;11780;13.904;100.620;2022-09-29T06:59:56;4.95;;;4.50;;
23222;SDS011;11780;13.904;100.620;2022-09-29T07:02:27;5.10;;;4.63;;
23222;SDS011;11780;13.904;100.620;2022-09-29T07:04:57;4.83;;;4.30;;
23222;SDS011;11780;13.904;100.620;2022-09-29T07:07:28;5.40;;;4.90;;
23222;SDS011;11780;13.904;100.620;2022-09-29T07:09:59;5.25;;;4.70;;
23222;SDS011;11780;13.904;100.620;2022-09-29T07:12:30;5.78;;;5.15;;
23222;SDS011;11780;13.904;100.620;2022-09-29T07:15:01;5.88;;;4.30;;
23222;SDS011;11780;13.904;100.620;2022-09-29T07:17:32;4.70;;;4.20;;
23222;SDS011;11780;13.904;100.620;2022-09-29T07:20:03;5.32;;;4.78;;
23222;SDS011;11780;13.904;100.620;2022-09-29T07:22:35;7.93;;;5.78;;
23222;SDS011;11780;13.904;100.620;2022-09-29T07:25:05;7.68;;;4.88;;
23222;SDS011;11780;13.904;100.620;2022-09-29T07:27:51;7.40;;;4.50;;
23222;SDS011;11780;13.904;100.620;2022-09-29T07:30:21;8.60;;;4.85;;
23222;SDS011;11780;13.904;100.620;2022-09-29T07:33:04;6.82;;;5.28;;
23222;SDS011;11780;13.904;100.620;2022-09-29T07:35:34;6.25;;;5.13;;
23222;SDS011;11780;13.904;100.620;2022-09-29T07:38:06;6.28;;;4.50;;
23222;SDS011;11780;13.904;100.620;2022-09-29T07:40:36;6.53;;;5.15;;
23222;SDS011;11780;13.904;100.620;2022-09-29T07:43:06;5.88;;;4.88;;
23222;SDS011;11780;13.904;100.620;2022-09-29T07:45:36;8.68;;;5.13;;
23222;SDS011;11780;13.904;100.620;2022-09-29T07:48:06;5.70;;;4.75;;
23222;SDS011;11780;13.904;100.620;2022-09-29T07:50:36;7.70;;;5.40;;
23222;SDS011;11780;13.904;100.620;2022-09-29T07:53:06;7.47;;;5.20;;
23222;SDS011;11780;13.904;100.620;2022-09-29T07:55:37;5.33;;;4.67;;
23222;SDS011;11780;13.904;100.620;2022-09-29T07:58:07;5.65;;;4.35;;
23222;SDS011;11780;13.904;100.620;2022-09-29T08:00:37;8.23;;;4.97;;
23222;SDS011;11780;13.904;100.620;2022-09-29T08:03:08;5.67;;;4.30;;
23222;SDS011;11780;13.904;100.620;2022-09-29T08:05:39;6.33;;;4.60;;
23222;SDS011;11780;13.904;100.620;2022-09-29T08:08:10;6.80;;;4.88;;
23222;SDS011;11780;13.904;100.620;2022-09-29T08:10:39;5.90;;;4.70;;
23222;SDS011;11780;13.904;100.620;2022-09-29T08:13:19;6.72;;;4.10;;
23222;SDS011;11780;13.904;100.620;2022-09-29T08:15:55;4.65;;;4.20;;
23222;SDS011;11780;13.904;100.620;2022-09-29T08:18:28;5.55;;;4.45;;
23222;SDS011;11780;13.904;100.620;2022-09-29T08:20:59;5.95;;;3.83;;
23222;SDS011;11780;13.904;100.620;2022-09-29T08:23:39;11.32;;;4.10;;
23222;SDS011;11780;13.904;100.620;2022-09-29T08:26:15;4.97;;;3.92;;
23222;SDS011;11780;13.904;100.620;2022-09-29T08:28:59;7.18;;;4.72;;
23222;SDS011;11780;13.904;100.620;2022-09-29T08:31:35;5.22;;;4.68;;
23222;SDS011;11780;13.904;100.620;2022-09-29T08:34:08;5.18;;;4.28;;
23222;SDS011;11780;13.904;100.620;2022-09-29T08:36:39;5.05;;;3.88;;
23222;SDS011;11780;13.904;100.620;2022-09-29T08:39:09;5.32;;;4.15;;
23222;SDS011;11780;13.904;100.620;2022-09-29T08:47:14;6.07;;;4.07;;
23222;SDS011;11780;13.904;100.620;2022-09-29T08:52:28;7.43;;;4.82;;
23222;SDS011;11780;13.904;100.620;2022-09-29T08:57:57;5.63;;;3.95;;
23222;SDS011;11780;13.904;100.620;2022-09-29T09:00:34;6.03;;;4.03;;
23222;SDS011;11780;13.904;100.620;2022-09-29T09:03:13;5.90;;;4.57;;
23222;SDS011;11780;13.904;100.620;2022-09-29T09:06:06;5.72;;;4.20;;
23222;SDS011;11780;13.904;100.620;2022-09-29T09:22:55;5.05;;;3.97;;
23222;SDS011;11780;13.904;100.620;2022-09-29T09:25:28;5.20;;;4.10;;
23222;SDS011;11780;13.904;100.620;2022-09-29T09:28:15;4.45;;;4.03;;
23222;SDS011;11780;13.904;100.620;2022-09-29T09:30:55;4.63;;;4.07;;
23222;SDS011;11780;13.904;100.620;2022-09-29T09:34:05;4.40;;;4.00;;
23222;SDS011;11780;13.904;100.620;2022-09-29T09:36:36;5.80;;;4.55;;
23222;SDS011;11780;13.904;100.620;2022-09-29T09:42:08;4.85;;;4.20;;
23222;SDS011;11780;13.904;100.620;2022-09-29T09:44:51;6.22;;;4.57;;
23222;SDS011;11780;13.904;100.620;2022-09-29T09:47:28;5.65;;;4.55;;
23222;SDS011;11780;13.904;100.620;2022-09-29T09:50:13;5.18;;;4.78;;
23222;SDS011;11780;13.904;100.620;2022-09-29T09:55:27;5.50;;;4.43;;
23222;SDS011;11780;13.904;100.620;2022-09-29T10:01:03;5.90;;;4.65;;
23222;SDS011;11780;13.904;100.620;2022-09-29T10:03:35;6.85;;;5.55;;
23222;SDS011;11780;13.904;100.620;2022-09-29T10:06:07;7.85;;;4.95;;
23222;SDS011;11780;13.904;100.620;2022-09-29T10:08:38;4.85;;;4.40;;
23222;SDS011;11780;13.904;100.620;2022-09-29T10:13:48;7.25;;;4.68;;
23222;SDS011;11780;13.904;100.620;2022-09-29T10:17:12;7.00;;;5.20;;
23222;SDS011;11780;13.904;100.620;2022-09-29T10:19:57;6.63;;;4.97;;
23222;SDS011;11780;13.904;100.620;2022-09-29T10:22:34;6.93;;;5.25;;
23222;SDS011;11780;13.904;100.620;2022-09-29T10:27:48;7.90;;;5.88;;
23222;SDS011;11780;13.904;100.620;2022-09-29T10:30:30;6.97;;;5.82;;
23222;SDS011;11780;13.904;100.620;2022-09-29T10:33:04;7.88;;;5.65;;
23222;SDS011;11780;13.904;100.620;2022-09-29T10:35:38;7.43;;;5.80;;
23222;SDS011;11780;13.904;100.620;2022-09-29T10:46:03;6.28;;;5.35;;
23222;SDS011;11780;13.904;100.620;2022-09-29T10:48:35;6.38;;;5.25;;
23222;SDS011;11780;13.904;100.620;2022-09-29T10:51:22;7.63;;;5.30;;
23222;SDS011;11780;13.904;100.620;2022-09-29T10:53:53;9.63;;;6.53;;
23222;SDS011;11780;13.904;100.620;2022-09-29T10:56:23;8.20;;;5.60;;
23222;SDS011;11780;13.904;100.620;2022-09-29T10:58:57;6.95;;;6.25;;
23222;SDS011;11780;13.904;100.620;2022-09-29T11:01:33;10.93;;;6.45;;
23222;SDS011;11780;13.904;100.620;2022-09-29T11:07:04;9.15;;;5.88;;
23222;SDS011;11780;13.904;100.620;2022-09-29T11:09:42;7.43;;;5.72;;
23222;SDS011;11780;13.904;100.620;2022-09-29T11:15:23;7.70;;;6.40;;
23222;SDS011;11780;13.904;100.620;2022-09-29T11:17:55;8.98;;;6.57;;
23222;SDS011;11780;13.904;100.620;2022-09-29T11:20:27;9.68;;;6.75;;
23222;SDS011;11780;13.904;100.620;2022-09-29T11:23:22;8.80;;;6.13;;
23222;SDS011;11780;13.904;100.620;2022-09-29T11:26:16;11.05;;;6.50;;
23222;SDS011;11780;13.904;100.620;2022-09-29T11:31:58;11.13;;;6.72;;
23222;SDS011;11780;13.904;100.620;2022-09-29T11:37:44;9.20;;;6.93;;
23222;SDS011;11780;13.904;100.620;2022-09-29T12:00:14;10.23;;;7.60;;
23222;SDS011;11780;13.904;100.620;2022-09-29T12:11:06;10.75;;;8.23;;
23222;SDS011;11780;13.904;100.620;2022-09-29T12:14:15;11.27;;;8.27;;
23222;SDS011;11780;13.904;100.620;2022-09-29T12:16:50;10.18;;;7.93;;
23222;SDS011;11780;13.904;100.620;2022-09-29T12:19:26;10.27;;;8.38;;
23222;SDS011;11780;13.904;100.620;2022-09-29T12:22:00;12.32;;;9.13;;
23222;SDS011;11780;13.904;100.620;2022-09-29T12:24:36;13.35;;;9.80;;
23222;SDS011;11780;13.904;100.620;2022-09-29T12:27:30;11.88;;;9.27;;
23222;SDS011;11780;13.904;100.620;2022-09-29T12:39:04;12.55;;;10.13;;
23222;SDS011;11780;13.904;100.620;2022-09-29T12:41:48;14.18;;;11.15;;
23222;SDS011;11780;13.904;100.620;2022-09-29T12:44:26;11.80;;;10.60;;
23222;SDS011;11780;13.904;100.620;2022-09-29T12:47:22;13.82;;;10.32;;
23222;SDS011;11780;13.904;100.620;2022-09-29T12:56:22;15.40;;;11.75;;
23222;SDS011;11780;13.904;100.620;2022-09-29T12:59:01;15.20;;;11.95;;
23222;SDS011;11780;13.904;100.620;2022-09-29T13:01:37;18.58;;;12.82;;
23222;SDS011;11780;13.904;100.620;2022-09-29T13:18:44;21.05;;;16.95;;
23222;SDS011;11780;13.904;100.620;2022-09-29T13:22:14;26.23;;;17.70;;
23222;SDS011;11780;13.904;100.620;2022-09-29T13:24:49;22.88;;;16.65;;
23222;SDS011;11780;13.904;100.620;2022-09-29T13:27:42;24.60;;;16.52;;
23222;SDS011;11780;13.904;100.620;2022-09-29T13:32:50;24.38;;;17.13;;
23222;SDS011;11780;13.904;100.620;2022-09-29T13:35:30;23.73;;;17.70;;
23222;SDS011;11780;13.904;100.620;2022-09-29T13:38:17;24.92;;;17.55;;
23222;SDS011;11780;13.904;100.620;2022-09-29T13:46:42;26.98;;;18.38;;
23222;SDS011;11780;13.904;100.620;2022-09-29T13:51:46;23.45;;;17.50;;
23222;SDS011;11780;13.904;100.620;2022-09-29T13:54:24;21.40;;;17.00;;
23222;SDS011;11780;13.904;100.620;2022-09-29T13:59:30;22.88;;;17.52;;
23222;SDS011;11780;13.904;100.620;2022-09-29T14:02:12;21.95;;;17.13;;
23222;SDS011;11780;13.904;100.620;2022-09-29T14:13:04;18.30;;;15.82;;
23222;SDS011;11780;13.904;100.620;2022-09-29T14:16:02;24.45;;;15.77;;
23222;SDS011;11780;13.904;100.620;2022-09-29T14:21:45;19.33;;;15.35;;
23222;SDS011;11780;13.904;100.620;2022-09-29T14:30:05;19.65;;;16.05;;
23222;SDS011;11780;13.904;100.620;2022-09-29T14:35:29;19.73;;;14.93;;
23222;SDS011;11780;13.904;100.620;2022-09-29T15:01:26;16.23;;;12.65;;
23222;SDS011;11780;13.904;100.620;2022-09-29T15:04:04;14.10;;;12.23;;
23222;SDS011;11780;13.904;100.620;2022-09-29T15:06:49;18.63;;;13.60;;
23222;SDS011;11780;13.904;100.620;2022-09-29T15:09:21;15.53;;;13.10;;
23222;SDS011;11780;13.904;100.620;2022-09-29T15:11:54;30.00;;;16.13;;
23222;SDS011;11780;13.904;100.620;2022-09-29T15:14:31;18.42;;;13.27;;
23222;SDS011;11780;13.904;100.620;2022-09-29T15:20:17;18.90;;;13.38;;
23222;SDS011;11780;13.904;100.620;2022-09-29T15:26:10;16.90;;;12.93;;
23222;SDS011;11780;13.904;100.620;2022-09-29T15:28:43;18.23;;;13.07;;
23222;SDS011;11780;13.904;100.620;2022-09-29T15:31:18;16.77;;;12.50;;
23222;SDS011;11780;13.904;100.620;2022-09-29T15:33:57;16.58;;;12.65;;
23222;SDS011;11780;13.904;100.620;2022-09-29T15:36:34;16.77;;;13.50;;
23222;SDS011;11780;13.904;100.620;2022-09-29T15:39:08;16.10;;;12.50;;
23222;SDS011;11780;13.904;100.620;2022-09-29T15:42:00;13.20;;;11.82;;
23222;SDS011;11780;13.904;100.620;2022-09-29T15:44:32;14.75;;;12.93;;
23222;SDS011;11780;13.904;100.620;2022-09-29T15:47:02;14.95;;;12.60;;
23222;SDS011;11780;13.904;100.620;2022-09-29T15:49:31;15.38;;;12.82;;
23222;SDS011;11780;13.904;100.620;2022-09-29T15:52:03;15.95;;;12.50;;
23222;SDS011;11780;13.904;100.620;2022-09-29T15:54:47;14.27;;;12.68;;
23222;SDS011;11780;13.904;100.620;2022-09-29T16:05:22;16.92;;;12.95;;
23222;SDS011;11780;13.904;100.620;2022-09-29T16:07:55;18.90;;;13.82;;
23222;SDS011;11780;13.904;100.620;2022-09-29T16:10:40;16.92;;;12.52;;
23222;SDS011;11780;13.904;100.620;2022-09-29T16:13:18;13.90;;;12.43;;
23222;SDS011;11780;13.904;100.620;2022-09-29T16:16:03;19.42;;;13.68;;
23222;SDS011;11780;13.904;100.620;2022-09-29T16:21:10;16.45;;;12.85;;
23222;SDS011;11780;13.904;100.620;2022-09-29T16:23:49;15.60;;;12.77;;
23222;SDS011;11780;13.904;100.620;2022-09-29T16:26:35;16.08;;;12.88;;
23222;SDS011;11780;13.904;100.620;2022-09-29T16:31:39;17.60;;;12.98;;
23222;SDS011;11780;13.904;100.620;2022-09-29T16:36:51;14.20;;;12.15;;
23222;SDS011;11780;13.904;100.620;2022-09-29T16:39:24;15.38;;;11.80;;
23222;SDS011;11780;13.904;100.620;2022-09-29T16:42:02;16.00;;;12.35;;
23222;SDS011;11780;13.904;100.620;2022-09-29T16:44:34;16.25;;;12.90;;
23222;SDS011;11780;13.904;100.620;2022-09-29T16:47:15;15.55;;;13.18;;
23222;SDS011;11780;13.904;100.620;2022-09-29T16:49:47;15.48;;;11.85;;
23222;SDS011;11780;13.904;100.620;2022-09-29T16:55:28;16.35;;;12.05;;
23222;SDS011;11780;13.904;100.620;2022-09-29T16:58:00;14.65;;;11.77;;
23222;SDS011;11780;13.904;100.620;2022-09-29T17:00:30;13.73;;;11.50;;
23222;SDS011;11780;13.904;100.620;2022-09-29T17:03:00;11.02;;;9.82;;
23222;SDS011;11780;13.904;100.620;2022-09-29T17:05:36;11.60;;;10.40;;
23222;SDS011;11780;13.904;100.620;2022-09-29T17:08:17;11.75;;;10.05;;
23222;SDS011;11780;13.904;100.620;2022-09-29T17:10:50;12.00;;;9.75;;
23222;SDS011;11780;13.904;100.620;2022-09-29T17:13:22;10.90;;;9.80;;
23222;SDS011;11780;13.904;100.620;2022-09-29T17:15:53;13.40;;;9.90;;
23222;SDS011;11780;13.904;100.620;2022-09-29T17:18:23;10.18;;;8.93;;
23222;SDS011;11780;13.904;100.620;2022-09-29T17:20:55;12.90;;;9.85;;
23222;SDS011;11780;13.904;100.620;2022-09-29T17:23:24;9.55;;;8.52;;
23222;SDS011;11780;13.904;100.620;2022-09-29T17:25:54;12.35;;;8.98;;
23222;SDS011;11780;13.904;100.620;2022-09-29T17:28:44;10.30;;;8.77;;
23222;SDS011;11780;13.904;100.620;2022-09-29T17:31:14;9.30;;;8.23;;
23222;SDS011;11780;13.904;100.620;2022-09-29T17:33:44;9.07;;;7.82;;
23222;SDS011;11780;13.904;100.620;2022-09-29T17:36:14;11.73;;;8.30;;
23222;SDS011;11780;13.904;100.620;2022-09-29T17:38:44;9.32;;;8.27;;
23222;SDS011;11780;13.904;100.620;2022-09-29T17:41:18;12.70;;;7.65;;
23222;SDS011;11780;13.904;100.620;2022-09-29T17:43:49;10.67;;;8.03;;
23222;SDS011;11780;13.904;100.620;2022-09-29T17:46:19;9.30;;;7.53;;
23222;SDS011;11780;13.904;100.620;2022-09-29T17:48:49;10.75;;;7.40;;
23222;SDS011;11780;13.904;100.620;2022-09-29T17:51:18;9.05;;;8.15;;
23222;SDS011;11780;13.904;100.620;2022-09-29T17:53:48;8.45;;;6.95;;
23222;SDS011;11780;13.904;100.620;2022-09-29T17:56:19;10.95;;;7.63;;
23222;SDS011;11780;13.904;100.620;2022-09-29T17:58:54;8.77;;;7.45;;
23222;SDS011;11780;13.904;100.620;2022-09-29T18:01:27;9.57;;;8.07;;
23222;SDS011;11780;13.904;100.620;2022-09-29T18:04:02;8.43;;;6.82;;
23222;SDS011;11780;13.904;100.620;2022-09-29T18:06:34;11.63;;;7.55;;
23222;SDS011;11780;13.904;100.620;2022-09-29T18:09:15;9.32;;;7.22;;
23222;SDS011;11780;13.904;100.620;2022-09-29T18:11:46;7.80;;;6.72;;
23222;SDS011;11780;13.904;100.620;2022-09-29T18:14:16;10.20;;;6.70;;
23222;SDS011;11780;13.904;100.620;2022-09-29T18:16:46;7.63;;;6.75;;
23222;SDS011;11780;13.904;100.620;2022-09-29T18:19:17;7.43;;;6.60;;
23222;SDS011;11780;13.904;100.620;2022-09-29T18:21:47;8.30;;;6.35;;
23222;SDS011;11780;13.904;100.620;2022-09-29T18:24:17;9.02;;;6.30;;
23222;SDS011;11780;13.904;100.620;2022-09-29T18:26:47;8.27;;;6.20;;
23222;SDS011;11780;13.904;100.620;2022-09-29T18:29:17;9.65;;;6.10;;
23222;SDS011;11780;13.904;100.620;2022-09-29T18:31:47;8.60;;;6.18;;
23222;SDS011;11780;13.904;100.620;2022-09-29T18:34:18;8.30;;;6.55;;
23222;SDS011;11780;13.904;100.620;2022-09-29T18:36:50;8.40;;;5.97;;
23222;SDS011;11780;13.904;100.620;2022-09-29T18:39:19;6.13;;;5.32;;
23222;SDS011;11780;13.904;100.620;2022-09-29T18:41:49;8.70;;;5.82;;
23222;SDS011;11780;13.904;100.620;2022-09-29T18:44:19;8.15;;;6.22;;
23222;SDS011;11780;13.904;100.620;2022-09-29T18:46:52;6.50;;;5.90;;
23222;SDS011;11780;13.904;100.620;2022-09-29T18:49:22;9.35;;;5.80;;
23222;SDS011;11780;13.904;100.620;2022-09-29T18:51:52;7.53;;;5.47;;
23222;SDS011;11780;13.904;100.620;2022-09-29T18:54:22;7.85;;;5.18;;
23222;SDS011;11780;13.904;100.620;2022-09-29T18:56:52;9.13;;;5.45;;
23222;SDS011;11780;13.904;100.620;2022-09-29T18:59:22;6.88;;;5.10;;
23222;SDS011;11780;13.904;100.620;2022-09-29T19:01:52;7.57;;;5.47;;
23222;SDS011;11780;13.904;100.620;2022-09-29T19:04:22;8.05;;;5.68;;
23222;SDS011;11780;13.904;100.620;2022-09-29T19:06:53;6.83;;;5.10;;
23222;SDS011;11780;13.904;100.620;2022-09-29T19:09:22;6.00;;;5.25;;